NCAR-RAP Real-Time Weather Data

Output produced by METARs form (24 April 2018  16:10 UTC)
found at http://weather.rap.ucar.edu/surface/
 
RJKA 241000Z 23010KT 9999 FEW015 SCT025 BKN035 23/20 Q1007
RJKA 240900Z 23017KT 8000 -SHRA FEW008 BKN015 BKN035 23/21 Q1006
RJKA 240838Z 19023KT 2500 SHRA FEW009 BKN010 BKN015 24/23 Q1005 RMK 1ST009 5CU010 7CU015 A2970
RJKA 240832Z 19024KT 3000 -SHRA FEW009 BKN010 BKN015 24/23 Q1005 RMK 1ST009 5CU010 7CU015 A2970
RJKA 240816Z 19024KT 4500 -SHRA FEW009 BKN010 BKN015 24/23 Q1005 RMK 1ST009 5CU010 7CU015 A2970
RJKA 240800Z 19023KT 9999 -SHRA FEW009 BKN010 BKN015 24/22 Q1005
RJKA 240700Z 20020KT 9999 FEW009 BKN010 BKN015 25/22 Q1007
RJKA 240600Z 19021KT 9999 FEW009 SCT010 BKN015 26/22 Q1007
RJKA 240500Z 19022KT 9999 FEW010 SCT015 BKN030 26/22 Q1008
RJKA 240400Z 19020KT 9999 FEW010 SCT015 BKN030 27/22 Q1009
RJKA 240300Z 18021KT 9999 FEW010 SCT020 BKN035 27/22 Q1009
RJKA 240200Z 18021KT 9999 FEW010 SCT015 BKN030 26/22 Q1010
RJKA 240100Z 18018KT 9999 FEW010 BKN025 BKN030 25/21 Q1011
RJKA 240000Z 18021KT 9999 FEW008 BKN012 BKN030 24/21 Q1011
RJKA 232300Z 18019KT 9999 FEW008 BKN012 BKN035 24/22 Q1011
RJKA 232200Z 18018KT 9999 FEW008 BKN010 BKN015 24/22 Q1011
RJKA 232130Z 17018KT 9999 FEW008 BKN012 BKN020 23/22 Q1011
RJKA 231000Z 16013KT 9999 FEW012 BKN015 BKN/// 23/20 Q1013
RJKA 230900Z 16013KT 9999 FEW012 BKN015 BKN/// 23/20 Q1013
RJKA 230800Z 16012KT 9999 FEW012 BKN015 BKN/// 24/20 Q1013
RJKA 230700Z 15013KT 9999 FEW012 BKN/// 25/20 Q1013
RJKA 230600Z 15014KT 9999 FEW014 BKN/// 25/20 Q1013
RJKA 230500Z 15013KT 9999 FEW015 BKN020 BKN/// 25/20 Q1014
RJKA 230400Z 15013KT 9999 FEW015 BKN/// 26/20 Q1014
RJKA 230300Z 15013KT 9999 FEW025 26/19 Q1015
RJKA 230200Z 15014KT 9999 FEW040 BKN/// 25/19 Q1015
RJKA 230100Z 15016KT 9999 FEW020 25/19 Q1015
RJKA 230000Z 15015KT 9999 FEW015 SCT020 24/19 Q1015
RJKA 222300Z 15014KT 9999 FEW015 24/20 Q1015
RJKA 222200Z 16011KT 9999 FEW015 SCT035 BKN040 23/19 Q1016
RJKA 222130Z 15011KT 9999 FEW015 SCT025 BKN035 23/19 Q1015
RJKA 221000Z 14012KT 9999 FEW015 BKN/// 23/18 Q1015
RJKA 220900Z 13012KT 9999 FEW015 BKN/// 23/18 Q1015
RJKA 220800Z 14012KT 9999 FEW015 BKN/// 23/19 Q1015
RJKA 220700Z 14011KT 9999 FEW020 BKN/// 24/18 Q1016
RJKA 220600Z 15010KT 9999 FEW020 BKN/// 25/18 Q1015
RJKA 220500Z 16010KT 9999 FEW020 BKN/// 25/18 Q1016